Time;durP1;ratioP1;P1;durP2;ratioP2;P2;SDS_P1;SDS_P2;PMS_P1;PMS_P2;Temp;Humidity;BMP_temperature;BMP_pressure;BME280_temperature;BME280_humidity;BME280_pressure;Samples;Min_cycle;Max_cycle;Signal;HPM_P1;HPM_P2
2022/12/13 00:01:40;;;;;;;28.37;20.83;;;-2.30;99.90;;;;;;5034270;28;20407;-72
2022/12/13 00:04:07;;;;;;;26.23;19.53;;;-2.30;99.90;;;;;;5016834;28;20422;-72
2022/12/13 00:06:34;;;;;;;32.37;22.63;;;-2.20;99.90;;;;;;5054495;28;20181;-72
2022/12/13 00:09:00;;;;;;;30.80;21.00;;;-2.30;99.90;;;;;;5073961;28;20428;-72
2022/12/13 00:11:26;;;;;;;30.87;19.93;;;-2.30;99.90;;;;;;5055950;28;20506;-73
2022/12/13 00:13:52;;;;;;;27.37;20.47;;;-2.30;99.90;;;;;;5073918;28;20483;-73
2022/12/13 00:16:21;;;;;;;33.50;22.57;;;-2.30;99.90;;;;;;5071107;28;20400;-71
2022/12/13 00:18:48;;;;;;;27.90;20.10;;;-2.30;99.90;;;;;;5053590;28;20429;-70
2022/12/13 00:21:17;;;;;;;31.13;20.13;;;-2.30;99.90;;;;;;5053550;28;20405;-71
2022/12/13 00:23:42;;;;;;;28.50;21.03;;;-2.30;99.90;;;;;;5053791;28;20492;-71
2022/12/13 00:26:28;;;;;;;29.73;22.10;;;-2.30;99.90;;;;;;5053560;28;20833;-72
2022/12/13 00:28:54;;;;;;;28.57;21.50;;;-2.40;99.90;;;;;;5035625;28;20214;-73
2022/12/13 00:31:23;;;;;;;27.83;20.30;;;-2.40;99.90;;;;;;5035513;28;20453;-73
2022/12/13 00:33:48;;;;;;;27.60;19.00;;;-2.50;99.90;;;;;;5052677;28;20175;-73
2022/12/13 00:36:15;;;;;;;30.20;22.17;;;-2.40;99.90;;;;;;5043264;28;20930;-73
2022/12/13 00:38:40;;;;;;;27.20;19.67;;;-2.40;99.90;;;;;;5073341;28;20431;-73
2022/12/13 00:41:15;;;;;;;27.13;20.90;;;-2.40;99.90;;;;;;5073451;28;20409;-72
2022/12/13 00:43:41;;;;;;;26.87;21.03;;;-2.40;99.90;;;;;;5073457;28;20248;-73
2022/12/13 00:46:15;;;;;;;27.37;21.47;;;-2.50;99.90;;;;;;5073346;28;20504;-73
2022/12/13 00:48:41;;;;;;;31.17;21.83;;;-2.50;99.90;;;;;;5073367;28;20423;-73
2022/12/13 00:51:08;;;;;;;31.87;22.33;;;-2.50;99.90;;;;;;5072754;28;20460;-73
2022/12/13 00:53:33;;;;;;;28.37;21.77;;;-2.50;99.90;;;;;;5055229;28;20412;-73
2022/12/13 00:56:00;;;;;;;34.40;22.10;;;-2.50;99.90;;;;;;5055434;28;20772;-73
2022/12/13 00:58:25;;;;;;;27.70;21.70;;;-2.60;99.90;;;;;;5073148;28;20428;-73
2022/12/13 01:00:51;;;;;;;31.27;22.87;;;-2.60;99.90;;;;;;5073790;28;20416;-73
2022/12/13 01:03:19;;;;;;;30.27;22.73;;;-2.70;99.90;;;;;;5055756;28;20178;-73
2022/12/13 01:05:48;;;;;;;30.50;22.50;;;-2.70;99.90;;;;;;5073379;28;20201;-72
2022/12/13 01:08:14;;;;;;;31.53;22.73;;;-2.70;99.90;;;;;;5071455;28;20447;-73
2022/12/13 01:10:46;;;;;;;29.93;21.93;;;-2.70;99.90;;;;;;5073614;28;20498;-72
2022/12/13 01:13:13;;;;;;;33.40;23.33;;;-2.70;99.90;;;;;;5073818;28;20479;-71
2022/12/13 01:15:42;;;;;;;33.37;23.20;;;-2.70;99.90;;;;;;5073659;28;20488;-72
2022/12/13 01:18:08;;;;;;;28.23;21.80;;;-2.70;99.90;;;;;;5073763;28;20421;-73
2022/12/13 01:20:34;;;;;;;30.53;22.90;;;-2.70;99.90;;;;;;5073626;28;20412;-72
2022/12/13 01:22:59;;;;;;;34.63;22.43;;;-2.70;99.90;;;;;;5071730;28;20900;-72
2022/12/13 01:25:25;;;;;;;31.70;23.13;;;-2.70;99.90;;;;;;5073378;28;20182;-73
2022/12/13 01:27:50;;;;;;;31.67;22.80;;;-2.80;99.90;;;;;;5072877;28;20186;-71
2022/12/13 01:30:16;;;;;;;31.87;22.33;;;-2.80;99.90;;;;;;5054842;28;20282;-72
2022/12/13 01:32:42;;;;;;;31.40;22.50;;;-2.80;99.90;;;;;;5072917;28;20208;-72
2022/12/13 01:35:08;;;;;;;37.30;24.40;;;-2.80;99.90;;;;;;5073026;28;20200;-72
2022/12/13 01:37:35;;;;;;;33.43;22.50;;;-2.90;99.90;;;;;;5072928;28;21003;-71
2022/12/13 01:40:02;;;;;;;28.70;21.90;;;-2.80;99.90;;;;;;5072754;28;20428;-72
2022/12/13 01:42:28;;;;;;;32.07;23.53;;;-2.80;99.90;;;;;;5073010;28;20408;-72
2022/12/13 01:45:01;;;;;;;29.50;22.20;;;-2.80;99.90;;;;;;5073841;28;20968;-73
2022/12/13 01:47:36;;;;;;;34.33;23.53;;;-2.90;99.90;;;;;;5076646;28;20252;-71
2022/12/13 01:50:08;;;;;;;33.33;22.27;;;-2.90;99.90;;;;;;5076487;28;20987;-71
2022/12/13 01:52:34;;;;;;;30.73;21.97;;;-2.90;99.90;;;;;;5076530;28;20391;-72
2022/12/13 01:55:02;;;;;;;35.13;24.00;;;-3.00;99.90;;;;;;5055599;28;20425;-73
2022/12/13 01:57:29;;;;;;;31.03;21.20;;;-3.00;99.90;;;;;;5037006;28;20410;-73
2022/12/13 01:59:54;;;;;;;35.80;24.27;;;-3.00;99.90;;;;;;5036702;28;20799;-73
2022/12/13 02:02:20;;;;;;;34.53;23.43;;;-3.00;99.90;;;;;;5036953;28;20425;-72
2022/12/13 02:04:58;;;;;;;33.83;23.17;;;-3.00;99.90;;;;;;5037353;28;20175;-73
2022/12/13 02:07:28;;;;;;;38.73;23.43;;;-3.00;99.90;;;;;;5042085;28;20412;-72
2022/12/13 02:09:56;;;;;;;35.33;22.23;;;-3.00;99.90;;;;;;5077503;28;20460;-72
2022/12/13 02:12:28;;;;;;;35.73;24.20;;;-3.00;99.90;;;;;;5078205;28;20415;-72
2022/12/13 02:14:55;;;;;;;35.83;23.97;;;-3.10;99.90;;;;;;5076725;28;20485;-72
2022/12/13 02:17:21;;;;;;;34.77;23.20;;;-3.10;99.90;;;;;;5058532;28;20408;-72
2022/12/13 02:20:05;;;;;;;33.00;22.03;;;-3.10;99.90;;;;;;5077418;28;20461;-71
2022/12/13 02:22:52;;;;;;;35.87;24.13;;;-3.10;99.90;;;;;;5064231;28;20186;-71
2022/12/13 02:25:45;;;;;;;35.93;23.47;;;-3.10;99.90;;;;;;5038025;28;20896;-73
2022/12/13 02:28:35;;;;;;;33.03;22.60;;;-3.10;99.90;;;;;;5055636;28;20424;-71
2022/12/13 02:31:27;;;;;;;29.37;22.53;;;-3.00;99.90;;;;;;5055965;28;20449;-72
2022/12/13 02:34:04;;;;;;;30.20;20.97;;;-3.10;99.90;;;;;;5055977;28;20398;-72
2022/12/13 02:36:42;;;;;;;27.83;20.93;;;-3.10;99.90;;;;;;5055731;28;20394;-72
2022/12/13 02:39:16;;;;;;;30.53;22.93;;;-3.10;99.90;;;;;;5071828;28;20453;-72
2022/12/13 02:41:48;;;;;;;35.13;23.90;;;-3.10;99.90;;;;;;5057691;28;20426;-73
2022/12/13 02:44:25;;;;;;;33.07;23.10;;;-3.10;99.90;;;;;;5076138;28;20404;-72
2022/12/13 02:47:04;;;;;;;31.83;22.73;;;-3.10;99.90;;;;;;5076073;28;20388;-72
2022/12/13 02:49:34;;;;;;;30.20;22.00;;;-3.10;99.90;;;;;;5076094;28;20431;-72
2022/12/13 02:52:01;;;;;;;33.47;22.47;;;-3.10;99.90;;;;;;5075495;28;20389;-71
2022/12/13 02:54:28;;;;;;;31.93;21.90;;;-3.10;99.90;;;;;;5057041;28;20409;-72
2022/12/13 02:56:55;;;;;;;35.33;22.30;;;-3.20;99.90;;;;;;5074628;28;20420;-73
2022/12/13 02:59:23;;;;;;;29.57;21.20;;;-3.20;99.90;;;;;;5075314;28;20920;-73
2022/12/13 03:02:18;;;;;;;28.13;20.50;;;-3.30;99.90;;;;;;5057433;28;20420;-72
2022/12/13 03:08:33;;;;;;;23.90;18.80;;;-3.20;99.90;;;;;;5073615;28;20411;-71
2022/12/13 03:11:19;;;;;;;31.90;22.77;;;-3.30;99.90;;;;;;5075417;28;20448;-71
2022/12/13 03:13:58;;;;;;;29.33;20.67;;;-3.30;99.90;;;;;;5074407;28;20420;-71
2022/12/13 03:16:42;;;;;;;29.00;21.10;;;-3.40;99.90;;;;;;5075241;28;20389;-73
2022/12/13 03:19:10;;;;;;;30.63;21.53;;;-3.40;99.90;;;;;;5075042;28;20518;-72
2022/12/13 03:21:47;;;;;;;33.30;21.90;;;-3.30;99.90;;;;;;5075035;28;20400;-72
2022/12/13 03:24:15;;;;;;;26.93;19.67;;;-3.30;99.90;;;;;;5074372;28;20384;-72
2022/12/13 03:26:41;;;;;;;33.77;22.97;;;-3.30;99.90;;;;;;5074800;28;20492;-71
2022/12/13 03:29:06;;;;;;;28.83;19.97;;;-3.30;99.90;;;;;;5085598;22;20945;-72
2022/12/13 03:31:32;;;;;;;28.83;21.10;;;-3.40;99.90;;;;;;5074644;28;20201;-71
2022/12/13 03:33:58;;;;;;;32.33;21.10;;;-3.30;99.90;;;;;;5074227;28;20173;-73
2022/12/13 03:36:24;;;;;;;26.77;19.03;;;-3.40;99.90;;;;;;5074292;28;20173;-73
2022/12/13 03:38:51;;;;;;;29.20;20.93;;;-3.40;99.90;;;;;;5074539;28;20609;-73
2022/12/13 03:41:22;;;;;;;28.97;21.10;;;-3.40;99.90;;;;;;5055991;28;20808;-72
2022/12/13 03:43:48;;;;;;;30.93;21.00;;;-3.50;99.90;;;;;;5074212;28;20754;-73
2022/12/13 03:46:14;;;;;;;24.60;20.23;;;-3.40;99.90;;;;;;5073439;28;20423;-72
2022/12/13 03:48:40;;;;;;;31.73;20.90;;;-3.40;99.90;;;;;;5073968;28;20411;-72
2022/12/13 03:51:05;;;;;;;30.17;20.33;;;-3.40;99.90;;;;;;5073626;28;20279;-73
2022/12/13 03:53:31;;;;;;;27.70;20.53;;;-3.40;99.90;;;;;;5073807;28;20173;-72
2022/12/13 03:55:57;;;;;;;25.77;19.00;;;-3.40;99.90;;;;;;5069288;28;20171;-72
2022/12/13 03:58:23;;;;;;;27.27;17.70;;;-3.50;99.90;;;;;;5035244;28;20413;-73
2022/12/13 04:00:49;;;;;;;29.37;20.00;;;-3.50;99.90;;;;;;5063751;28;20198;-72
2022/12/13 04:03:14;;;;;;;25.17;19.43;;;-3.50;99.90;;;;;;5052388;28;20185;-73
2022/12/13 04:05:40;;;;;;;28.83;21.03;;;-3.50;99.90;;;;;;5035374;28;20931;-73
2022/12/13 04:08:07;;;;;;;25.80;17.60;;;-3.50;99.90;;;;;;5055544;28;20185;-73
2022/12/13 04:10:34;;;;;;;27.40;18.47;;;-3.50;99.90;;;;;;5072168;28;20273;-73
2022/12/13 04:15:47;;;;;;;24.70;17.70;;;-3.60;99.90;;;;;;5055142;28;20475;-73
2022/12/13 04:18:15;;;;;;;19.97;17.07;;;-3.50;99.90;;;;;;5035273;28;20449;-72
2022/12/13 04:20:40;;;;;;;26.87;18.03;;;-3.50;99.90;;;;;;5053243;28;20413;-72
2022/12/13 04:23:06;;;;;;;24.83;18.00;;;-3.60;99.90;;;;;;5053126;28;20467;-72
2022/12/13 04:25:31;;;;;;;23.30;16.43;;;-3.50;99.90;;;;;;5052743;28;20625;-72
2022/12/13 04:27:57;;;;;;;25.90;17.10;;;-3.50;99.90;;;;;;5052811;28;20187;-72
2022/12/13 04:30:22;;;;;;;24.97;16.47;;;-3.50;99.90;;;;;;5052673;28;20215;-72
2022/12/13 04:32:48;;;;;;;22.83;16.43;;;-3.70;99.90;;;;;;5052967;28;20573;-71
2022/12/13 04:35:13;;;;;;;23.97;16.67;;;-3.70;99.90;;;;;;5052986;28;20531;-72
2022/12/13 04:37:39;;;;;;;23.70;16.83;;;-3.70;99.90;;;;;;5053047;28;20163;-72
2022/12/13 04:40:06;;;;;;;25.37;17.70;;;-3.60;99.90;;;;;;5071858;28;20241;-72
2022/12/13 04:42:31;;;;;;;25.33;17.10;;;-3.60;99.90;;;;;;5073213;28;20405;-73
2022/12/13 04:44:57;;;;;;;25.00;17.40;;;-3.70;99.90;;;;;;5072870;28;20411;-72
2022/12/13 04:47:22;;;;;;;25.57;17.83;;;-3.70;99.90;;;;;;5073570;28;20209;-72
2022/12/13 04:49:48;;;;;;;24.93;17.77;;;-3.70;99.90;;;;;;5072680;28;20200;-72
2022/12/13 04:52:14;;;;;;;22.53;14.97;;;-3.70;99.90;;;;;;5072909;28;20162;-72
2022/12/13 04:54:39;;;;;;;20.17;14.93;;;-3.60;99.90;;;;;;5072372;28;20189;-71
2022/12/13 04:57:08;;;;;;;23.93;16.33;;;-3.70;99.90;;;;;;5072649;28;20161;-72
2022/12/13 04:59:34;;;;;;;20.20;15.80;;;-3.60;99.90;;;;;;5072333;28;20294;-71
2022/12/13 05:01:59;;;;;;;24.70;16.93;;;-3.60;99.90;;;;;;5072453;28;20561;-72
2022/12/13 05:04:25;;;;;;;20.67;16.17;;;-3.60;99.90;;;;;;5072591;28;20409;-72
2022/12/13 05:06:50;;;;;;;22.93;15.67;;;-3.60;99.90;;;;;;5072696;28;20188;-72
2022/12/13 05:09:16;;;;;;;28.03;16.20;;;-3.60;99.90;;;;;;5070362;28;20190;-72
2022/12/13 05:11:41;;;;;;;21.43;15.33;;;-3.60;99.90;;;;;;5072723;28;20173;-73
2022/12/13 05:14:07;;;;;;;21.07;15.70;;;-3.70;99.90;;;;;;5072548;28;20169;-71
2022/12/13 05:16:32;;;;;;;24.30;16.80;;;-3.70;99.90;;;;;;5071936;28;20182;-72
2022/12/13 05:18:58;;;;;;;22.43;17.23;;;-3.70;99.90;;;;;;5054020;28;20185;-73
2022/12/13 05:21:24;;;;;;;23.70;16.17;;;-3.60;99.90;;;;;;5075626;28;20188;-72
2022/12/13 05:23:49;;;;;;;21.43;15.00;;;-3.60;99.90;;;;;;5074289;28;20250;-73
2022/12/13 05:26:15;;;;;;;20.80;15.47;;;-3.70;99.90;;;;;;5058091;28;20268;-74
2022/12/13 05:28:40;;;;;;;20.27;14.90;;;-3.70;99.90;;;;;;5056288;28;20213;-73
2022/12/13 05:31:08;;;;;;;26.27;17.67;;;-3.70;99.90;;;;;;5056600;28;20220;-72
2022/12/13 05:33:34;;;;;;;20.17;14.90;;;-3.70;99.90;;;;;;5056394;28;20165;-73
2022/12/13 05:36:00;;;;;;;24.20;16.50;;;-3.70;99.90;;;;;;5036833;28;20951;-73
2022/12/13 05:38:25;;;;;;;23.97;16.57;;;-3.70;99.90;;;;;;5055626;28;20433;-73
2022/12/13 05:40:51;;;;;;;22.07;15.80;;;-3.60;99.90;;;;;;5056300;28;20269;-73
2022/12/13 05:43:16;;;;;;;23.27;16.03;;;-3.70;99.90;;;;;;5056214;28;20230;-72
2022/12/13 05:45:42;;;;;;;25.40;17.00;;;-3.70;99.90;;;;;;5056334;28;20169;-73
2022/12/13 05:48:09;;;;;;;25.03;16.70;;;-3.70;99.90;;;;;;5055994;28;20175;-72
2022/12/13 05:50:35;;;;;;;24.20;16.50;;;-3.70;99.90;;;;;;5055849;28;20190;-73
2022/12/13 05:53:02;;;;;;;23.47;16.97;;;-3.70;99.90;;;;;;5058390;28;20408;-73
2022/12/13 05:55:28;;;;;;;21.83;16.50;;;-3.70;99.90;;;;;;5075566;28;20395;-73
2022/12/13 05:57:53;;;;;;;23.73;16.43;;;-3.70;99.90;;;;;;5075793;28;20400;-72
2022/12/13 06:00:19;;;;;;;22.43;16.23;;;-3.70;99.90;;;;;;5075505;28;20280;-72
2022/12/13 06:02:45;;;;;;;23.80;15.40;;;-3.80;99.90;;;;;;5075555;28;20174;-72
2022/12/13 06:05:11;;;;;;;27.13;16.33;;;-3.80;99.90;;;;;;5075463;28;20625;-73
2022/12/13 06:07:37;;;;;;;20.20;15.17;;;-3.80;99.90;;;;;;5074995;28;20483;-72
2022/12/13 06:10:04;;;;;;;22.87;16.23;;;-3.80;99.90;;;;;;5055400;28;20612;-72
2022/12/13 06:12:30;;;;;;;27.17;17.37;;;-3.80;99.90;;;;;;5075314;28;20155;-72
2022/12/13 06:14:55;;;;;;;25.43;16.23;;;-3.90;99.90;;;;;;5075390;28;20404;-72
2022/12/13 06:17:23;;;;;;;23.60;16.33;;;-3.90;99.90;;;;;;5075487;28;20409;-72
2022/12/13 06:19:50;;;;;;;19.63;15.23;;;-3.80;99.90;;;;;;5075513;28;20273;-71
2022/12/13 06:22:15;;;;;;;23.10;17.60;;;-3.80;99.90;;;;;;5075743;28;20432;-71
2022/12/13 06:24:41;;;;;;;21.63;18.00;;;-3.80;99.90;;;;;;5075197;28;20881;-72
2022/12/13 06:27:07;;;;;;;19.23;14.60;;;-3.80;99.90;;;;;;5059915;28;20266;-72
2022/12/13 06:29:32;;;;;;;22.07;17.00;;;-3.80;99.90;;;;;;5040364;28;20265;-72
2022/12/13 06:32:00;;;;;;;22.90;15.43;;;-3.80;99.90;;;;;;5034446;28;20189;-72
2022/12/13 06:34:26;;;;;;;21.97;16.17;;;-3.80;99.90;;;;;;5035858;28;20168;-72
2022/12/13 06:36:52;;;;;;;21.33;15.47;;;-3.70;99.90;;;;;;5035803;28;20434;-73
2022/12/13 06:39:18;;;;;;;19.43;14.80;;;-3.80;99.90;;;;;;5047244;28;20970;-72
2022/12/13 06:41:50;;;;;;;21.23;15.87;;;-3.80;99.90;;;;;;5048492;28;20165;-72
2022/12/13 06:44:15;;;;;;;24.20;18.80;;;-3.80;99.90;;;;;;5045510;28;20160;-72
2022/12/13 06:46:41;;;;;;;26.73;16.80;;;-3.80;99.90;;;;;;5044405;28;20969;-72
2022/12/13 06:49:07;;;;;;;21.30;15.47;;;-3.80;99.90;;;;;;5045838;28;20229;-73
2022/12/13 06:51:33;;;;;;;23.57;16.43;;;-3.80;99.90;;;;;;5037550;28;20450;-73
2022/12/13 06:54:01;;;;;;;19.53;15.57;;;-3.80;99.90;;;;;;5035139;28;20406;-72
2022/12/13 06:56:26;;;;;;;21.00;14.90;;;-3.90;99.90;;;;;;5034647;28;20814;-73
2022/12/13 06:58:52;;;;;;;20.03;15.13;;;-3.90;99.90;;;;;;5034773;28;20456;-73
2022/12/13 07:01:18;;;;;;;27.03;18.17;;;-3.90;99.90;;;;;;5034865;28;20168;-72
2022/12/13 07:03:44;;;;;;;29.90;20.90;;;-3.90;99.90;;;;;;5034788;28;20615;-73
2022/12/13 07:06:14;;;;;;;27.30;19.37;;;-3.90;99.90;;;;;;5034611;28;20878;-72
2022/12/13 07:08:41;;;;;;;29.00;20.90;;;-3.90;99.90;;;;;;5034313;28;20473;-72
2022/12/13 07:11:12;;;;;;;23.57;16.90;;;-3.80;99.90;;;;;;5072019;28;20444;-72
2022/12/13 07:13:37;;;;;;;23.27;14.80;;;-3.80;99.90;;;;;;5075025;28;20465;-71
2022/12/13 07:16:03;;;;;;;24.33;17.80;;;-3.70;99.90;;;;;;5066765;28;20412;-72
2022/12/13 07:18:28;;;;;;;25.43;16.77;;;-3.70;99.90;;;;;;5034676;28;20175;-72
2022/12/13 07:20:54;;;;;;;21.87;16.57;;;-3.70;99.90;;;;;;5047618;28;20224;-72
2022/12/13 07:23:19;;;;;;;25.17;17.63;;;-3.70;99.90;;;;;;5054559;28;20166;-72
2022/12/13 07:25:53;;;;;;;20.50;15.80;;;-3.70;99.90;;;;;;5050982;28;20226;-71
2022/12/13 07:28:19;;;;;;;23.93;17.00;;;-3.70;99.90;;;;;;5043072;28;20229;-72
2022/12/13 07:30:45;;;;;;;19.80;15.50;;;-3.70;99.90;;;;;;5044537;28;21037;-73
2022/12/13 07:33:12;;;;;;;17.50;14.30;;;-3.60;99.90;;;;;;5051653;28;20405;-71
2022/12/13 07:35:37;;;;;;;22.27;15.37;;;-3.50;99.90;;;;;;5045667;28;20408;-74
2022/12/13 07:38:04;;;;;;;22.17;15.70;;;-3.50;99.90;;;;;;5043968;28;20748;-73
2022/12/13 07:40:33;;;;;;;19.20;15.23;;;-3.40;99.90;;;;;;5047314;28;20210;-73
2022/12/13 07:42:58;;;;;;;23.57;16.00;;;-3.50;99.90;;;;;;5043119;28;20792;-72
2022/12/13 07:45:24;;;;;;;19.87;14.93;;;-3.40;99.90;;;;;;5043704;28;20398;-73
2022/12/13 07:47:50;;;;;;;21.27;16.90;;;-3.40;99.90;;;;;;5044684;28;20168;-73
2022/12/13 07:50:16;;;;;;;21.67;15.20;;;-3.30;99.90;;;;;;5043474;28;20186;-73
2022/12/13 07:52:41;;;;;;;22.63;17.50;;;-3.30;99.90;;;;;;5041831;28;20406;-73
2022/12/13 07:55:07;;;;;;;22.40;16.73;;;-3.20;99.90;;;;;;5033422;28;20481;-74
2022/12/13 07:57:33;;;;;;;22.63;17.33;;;-3.20;99.90;;;;;;5033252;28;20213;-73
2022/12/13 07:59:59;;;;;;;21.90;16.77;;;-3.20;99.90;;;;;;5015804;28;20802;-71
2022/12/13 08:02:25;;;;;;;23.37;17.63;;;-3.10;99.90;;;;;;5034441;28;20765;-70
2022/12/13 08:04:51;;;;;;;24.97;20.30;;;-3.10;99.90;;;;;;5034049;28;20172;-71
2022/12/13 08:07:16;;;;;;;23.10;16.83;;;-3.00;99.90;;;;;;5033604;28;20609;-72
2022/12/13 08:09:42;;;;;;;20.67;16.13;;;-3.00;99.90;;;;;;5048685;28;20534;-73
2022/12/13 08:12:08;;;;;;;21.57;15.93;;;-3.10;99.90;;;;;;5073857;28;20166;-73
2022/12/13 08:14:33;;;;;;;21.27;15.90;;;-3.00;99.90;;;;;;5073553;28;20162;-75
2022/12/13 08:16:59;;;;;;;21.00;15.20;;;-3.00;99.90;;;;;;5073562;28;20161;-73
2022/12/13 08:19:25;;;;;;;25.83;17.93;;;-2.80;99.90;;;;;;5054787;28;20221;-74
2022/12/13 08:21:55;;;;;;;21.70;15.80;;;-2.80;99.90;;;;;;5053941;28;20412;-72
2022/12/13 08:24:22;;;;;;;18.13;14.03;;;-2.80;99.90;;;;;;5053487;28;20190;-72
2022/12/13 08:26:48;;;;;;;26.03;17.40;;;-2.80;99.90;;;;;;5053173;28;20401;-72
2022/12/13 08:29:14;;;;;;;18.10;14.77;;;-2.70;99.90;;;;;;5053212;28;20449;-72
2022/12/13 08:31:40;;;;;;;18.87;15.40;;;-2.60;99.90;;;;;;5035930;28;20227;-72
2022/12/13 08:34:05;;;;;;;22.50;15.43;;;-2.60;99.90;;;;;;5053230;28;20421;-72
2022/12/13 08:36:31;;;;;;;20.30;16.00;;;-2.50;99.90;;;;;;5052853;28;20171;-72
2022/12/13 08:38:57;;;;;;;28.40;20.73;;;-2.50;99.90;;;;;;5054528;28;20182;-72
2022/12/13 08:41:23;;;;;;;25.37;18.47;;;-2.40;99.90;;;;;;5072617;28;20158;-73
2022/12/13 08:43:49;;;;;;;30.00;21.60;;;-2.60;99.90;;;;;;5072852;28;20940;-72
2022/12/13 08:46:15;;;;;;;26.23;19.83;;;-2.60;99.90;;;;;;5072797;28;20755;-72
2022/12/13 08:48:41;;;;;;;24.20;18.47;;;-2.40;99.90;;;;;;5073306;28;20396;-72
2022/12/13 08:51:08;;;;;;;26.47;19.63;;;-2.40;99.90;;;;;;5072526;28;20198;-72
2022/12/13 08:53:34;;;;;;;31.97;20.33;;;-2.30;99.90;;;;;;5055492;28;20499;-72
2022/12/13 08:56:01;;;;;;;26.60;18.87;;;-2.20;99.90;;;;;;5072287;28;20400;-72
2022/12/13 08:58:28;;;;;;;29.03;19.93;;;-2.20;99.90;;;;;;5073429;28;20407;-72
2022/12/13 09:00:54;;;;;;;25.20;18.70;;;-2.10;99.90;;;;;;5044342;28;20472;-72
2022/12/13 09:03:19;;;;;;;30.33;20.73;;;-2.10;99.90;;;;;;5033648;28;20414;-72
2022/12/13 09:05:45;;;;;;;32.20;19.57;;;-2.00;99.90;;;;;;5032404;28;20777;-72
2022/12/13 09:08:10;;;;;;;25.93;18.37;;;-1.90;99.90;;;;;;5033048;28;20176;-73
2022/12/13 09:10:36;;;;;;;23.53;16.83;;;-1.80;99.90;;;;;;5061787;28;20214;-73
2022/12/13 09:13:02;;;;;;;26.57;18.93;;;-1.70;99.90;;;;;;5072732;28;20178;-72
2022/12/13 09:15:30;;;;;;;26.77;19.20;;;-1.50;99.90;;;;;;5054533;28;20249;-72
2022/12/13 09:17:55;;;;;;;27.27;19.93;;;-1.60;99.90;;;;;;5072485;28;20516;-71
2022/12/13 09:20:21;;;;;;;29.30;20.53;;;-1.70;99.90;;;;;;5072733;28;20499;-71
2022/12/13 09:22:47;;;;;;;22.80;17.97;;;-1.60;99.90;;;;;;5070671;28;20183;-72
2022/12/13 09:25:13;;;;;;;23.97;18.27;;;-1.60;99.90;;;;;;5072280;28;20663;-71
2022/12/13 09:27:39;;;;;;;28.97;21.87;;;-1.60;99.90;;;;;;5072601;28;20172;-71
2022/12/13 09:30:06;;;;;;;22.60;17.17;;;-1.60;99.90;;;;;;5105792;22;20483;-71
2022/12/13 09:32:32;;;;;;;23.77;17.07;;;-1.30;99.90;;;;;;5093095;28;20603;-71
2022/12/13 09:34:58;;;;;;;25.90;17.60;;;-1.00;99.90;;;;;;5091504;28;20412;-70
2022/12/13 09:37:23;;;;;;;20.73;15.90;;;-1.00;99.90;;;;;;5093259;28;20175;-70
2022/12/13 09:39:49;;;;;;;23.00;16.10;;;-0.80;99.90;;;;;;5093230;28;20197;-71
2022/12/13 09:42:28;;;;;;;20.43;16.37;;;-0.80;99.90;;;;;;5092355;28;20174;-70
2022/12/13 09:44:58;;;;;;;22.03;17.07;;;-0.60;99.90;;;;;;5093758;28;20484;-70
2022/12/13 09:47:28;;;;;;;26.50;18.43;;;-0.70;99.90;;;;;;5092299;28;20394;-73
2022/12/13 09:49:54;;;;;;;19.97;15.70;;;-0.80;99.90;;;;;;5055021;28;20454;-71
2022/12/13 09:52:23;;;;;;;23.43;17.53;;;-0.80;99.90;;;;;;5053933;28;20421;-71
2022/12/13 09:54:54;;;;;;;23.07;16.73;;;-1.10;99.90;;;;;;5053327;28;20166;-70
2022/12/13 09:57:28;;;;;;;22.60;16.83;;;-1.00;99.90;;;;;;5058130;28;20483;-71
2022/12/13 09:59:54;;;;;;;22.90;16.83;;;-1.20;99.90;;;;;;5064070;28;20860;-70
2022/12/13 10:02:27;;;;;;;22.20;16.40;;;-1.10;99.90;;;;;;5069870;28;20493;-71
2022/12/13 10:04:56;;;;;;;20.80;16.00;;;-0.80;99.90;;;;;;5061637;28;20617;-70
2022/12/13 10:07:24;;;;;;;25.57;17.43;;;-0.60;99.90;;;;;;5065089;28;20406;-70
2022/12/13 10:09:59;;;;;;;22.67;17.20;;;-0.30;99.90;;;;;;5066641;28;20452;-70
2022/12/13 10:12:24;;;;;;;23.63;16.30;;;-0.30;99.90;;;;;;5063514;28;20405;-70
2022/12/13 10:14:55;;;;;;;19.53;15.10;;;-0.10;99.90;;;;;;5064370;28;20796;-71
2022/12/13 10:17:23;;;;;;;22.77;16.33;;;0.00;99.90;;;;;;5065996;28;20184;-71
2022/12/13 10:19:50;;;;;;;24.17;17.50;;;0.00;99.90;;;;;;5064073;28;20431;-69
2022/12/13 10:22:18;;;;;;;22.63;15.70;;;0.00;99.90;;;;;;5056249;28;20921;-70
2022/12/13 10:25:05;;;;;;;22.43;17.67;;;0.00;99.90;;;;;;5058165;28;20902;-70
2022/12/13 10:27:41;;;;;;;22.43;16.50;;;-0.30;99.90;;;;;;5076870;28;20886;-71
2022/12/13 10:30:12;;;;;;;20.70;15.37;;;-0.50;99.90;;;;;;5076235;28;20489;-70
2022/12/13 10:32:53;;;;;;;22.07;16.20;;;-0.60;99.90;;;;;;5076314;28;20494;-71
2022/12/13 10:35:19;;;;;;;22.47;16.90;;;-0.70;99.90;;;;;;5076835;28;20417;-70
2022/12/13 10:37:45;;;;;;;22.53;16.50;;;-0.60;99.90;;;;;;5076340;28;20428;-70
2022/12/13 10:40:33;;;;;;;21.80;16.07;;;-0.60;99.90;;;;;;5075623;28;20193;-71
2022/12/13 10:43:16;;;;;;;25.27;15.53;;;-0.40;99.90;;;;;;5072698;28;20252;-70
2022/12/13 10:46:02;;;;;;;26.60;16.40;;;-0.20;99.90;;;;;;5064699;28;20397;-71
2022/12/13 10:48:35;;;;;;;25.40;17.67;;;-0.20;99.90;;;;;;5055468;28;20420;-70
2022/12/13 10:51:21;;;;;;;22.77;16.97;;;-0.20;99.90;;;;;;5056074;28;20440;-71
2022/12/13 10:53:53;;;;;;;20.73;14.40;;;-0.10;99.90;;;;;;5055901;28;20476;-71
2022/12/13 10:56:21;;;;;;;21.17;14.90;;;0.10;99.90;;;;;;5055621;28;20381;-71
2022/12/13 10:58:48;;;;;;;21.13;13.73;;;0.30;99.90;;;;;;5055979;28;20446;-69
2022/12/13 11:01:27;;;;;;;27.00;16.07;;;0.50;99.90;;;;;;5057921;28;20776;-71
2022/12/13 11:04:02;;;;;;;20.27;14.83;;;1.00;99.90;;;;;;5067192;28;20400;-70
2022/12/13 11:06:40;;;;;;;18.47;14.90;;;1.50;99.90;;;;;;5066216;28;20917;-73
2022/12/13 11:09:15;;;;;;;21.00;14.20;;;1.40;99.90;;;;;;5063198;28;20393;-71
2022/12/13 11:11:43;;;;;;;25.77;15.80;;;2.10;99.90;;;;;;5061546;28;20435;-70
2022/12/13 11:14:17;;;;;;;23.27;15.73;;;2.10;99.90;;;;;;5075101;28;20400;-68
2022/12/13 11:16:44;;;;;;;21.90;15.60;;;2.40;99.90;;;;;;5075517;28;20387;-70
2022/12/13 11:19:22;;;;;;;15.10;13.40;;;1.90;99.90;;;;;;5073987;28;20467;-68
2022/12/13 11:21:50;;;;;;;33.07;16.27;;;1.40;99.90;;;;;;5075069;28;20392;-71
2022/12/13 11:24:29;;;;;;;20.10;14.13;;;0.90;99.90;;;;;;5075231;28;20396;-71
2022/12/13 11:27:13;;;;;;;24.33;14.40;;;1.50;99.90;;;;;;5073144;28;20503;-69
2022/12/13 11:30:03;;;;;;;20.30;15.23;;;2.10;99.90;;;;;;5074727;28;20447;-70
2022/12/13 11:32:55;;;;;;;20.67;14.70;;;2.30;99.90;;;;;;5073532;28;20424;-71
2022/12/13 11:35:39;;;;;;;19.47;13.67;;;2.20;99.90;;;;;;5075079;28;20387;-70
2022/12/13 11:38:13;;;;;;;18.00;12.60;;;2.30;99.90;;;;;;5072670;28;20426;-70
2022/12/13 11:40:45;;;;;;;19.20;14.03;;;2.10;99.90;;;;;;5055313;28;20432;-71
2022/12/13 11:43:35;;;;;;;25.80;14.87;;;2.00;99.90;;;;;;5073527;28;20440;-72
2022/12/13 11:46:24;;;;;;;22.30;15.70;;;2.20;99.90;;;;;;5074827;28;20450;-72
2022/12/13 11:48:57;;;;;;;22.73;15.67;;;2.70;99.90;;;;;;5075357;28;20416;-73
2022/12/13 11:51:40;;;;;;;27.20;15.33;;;3.30;99.90;;;;;;5075476;28;20802;-72
2022/12/13 11:54:15;;;;;;;21.00;14.30;;;3.70;99.50;;;;;;5075331;28;20385;-72
2022/12/13 11:56:43;;;;;;;21.10;15.03;;;3.30;99.40;;;;;;5073319;28;20454;-73
2022/12/13 11:59:49;;;;;;;22.13;14.70;;;2.30;99.90;;;;;;5074609;28;20504;-72
2022/12/13 12:02:20;;;;;;;17.90;12.57;;;1.40;99.90;;;;;;5069824;28;20941;-73
2022/12/13 12:04:52;;;;;;;17.70;12.37;;;1.20;99.90;;;;;;5075453;28;20401;-72
2022/12/13 12:07:35;;;;;;;23.03;14.43;;;1.50;99.90;;;;;;5071267;28;20408;-73
2022/12/13 12:10:10;;;;;;;17.00;12.43;;;1.60;99.90;;;;;;5062683;28;20534;-71
2022/12/13 12:12:38;;;;;;;23.60;14.57;;;2.00;99.90;;;;;;5065122;28;20393;-70
2022/12/13 12:15:16;;;;;;;23.10;14.70;;;2.50;99.90;;;;;;5066285;28;20910;-71
2022/12/13 12:17:42;;;;;;;16.77;13.80;;;2.00;99.90;;;;;;5079940;28;20400;-72
2022/12/13 12:20:18;;;;;;;24.90;15.33;;;2.20;99.90;;;;;;5073298;28;20802;-73
2022/12/13 12:23:06;;;;;;;22.13;15.77;;;2.40;99.90;;;;;;5076008;28;20636;-73
2022/12/13 12:26:03;;;;;;;21.70;14.80;;;2.60;99.90;;;;;;5075063;28;20451;-73
2022/12/13 12:28:37;;;;;;;19.77;14.20;;;3.20;99.90;;;;;;5074272;28;20388;-72
2022/12/13 12:31:38;;;;;;;20.00;14.83;;;3.40;99.70;;;;;;5074577;28;20546;-74
2022/12/13 12:34:29;;;;;;;20.07;14.77;;;2.90;99.80;;;;;;5075132;28;20412;-72
2022/12/13 12:37:10;;;;;;;18.13;14.30;;;2.80;99.90;;;;;;5074315;28;20384;-73
2022/12/13 12:39:57;;;;;;;21.77;14.47;;;2.50;99.90;;;;;;5074781;28;20424;-73
2022/12/13 12:42:46;;;;;;;20.60;14.30;;;2.40;99.90;;;;;;5069704;28;20387;-73
2022/12/13 12:45:14;;;;;;;36.47;18.80;;;2.60;99.90;;;;;;5062393;28;20817;-73
2022/12/13 12:48:08;;;;;;;30.10;16.30;;;2.20;99.90;;;;;;5073712;28;20458;-72